Time;durP1;ratioP1;P1;durP2;ratioP2;P2;SDS_P1;SDS_P2;PMS_P1;PMS_P2;Temp;Humidity;BMP_temperature;BMP_pressure;BME280_temperature;BME280_humidity;BME280_pressure;Samples;Min_cycle;Max_cycle;Signal;HPM_P1;HPM_P2
2021/11/26 00:00:25;;;;;;;5.65;1.70;;;4.10;99.90;;;;;;5062410;28;20028;-63
2021/11/26 00:02:51;;;;;;;6.70;1.73;;;4.10;99.90;;;;;;5057525;28;20021;-63
2021/11/26 00:05:16;;;;;;;3.33;1.60;;;4.10;99.90;;;;;;5058974;28;20096;-63
2021/11/26 00:07:42;;;;;;;5.85;1.92;;;4.10;99.90;;;;;;5057208;28;20099;-63
2021/11/26 00:10:08;;;;;;;6.03;2.20;;;4.10;99.90;;;;;;5059849;28;20044;-63
2021/11/26 00:12:33;;;;;;;6.32;2.28;;;4.10;99.90;;;;;;5054580;28;20385;-63
2021/11/26 00:17:24;;;;;;;3.90;1.75;;;4.20;99.90;;;;;;5059227;28;20025;-63
2021/11/26 00:19:50;;;;;;;4.10;1.77;;;4.20;99.90;;;;;;5060884;28;20020;-63
2021/11/26 00:22:16;;;;;;;6.78;2.80;;;4.20;99.90;;;;;;5059865;28;20385;-63
2021/11/26 00:24:42;;;;;;;9.93;2.90;;;4.20;99.90;;;;;;5065274;28;20071;-63
2021/11/26 00:27:07;;;;;;;2.63;1.63;;;4.20;99.90;;;;;;5062268;28;20086;-63
2021/11/26 00:29:33;;;;;;;6.65;1.90;;;4.30;99.90;;;;;;5059379;28;20481;-63
2021/11/26 00:31:59;;;;;;;4.63;1.48;;;4.20;99.90;;;;;;5056917;28;20052;-63
2021/11/26 00:34:24;;;;;;;4.25;1.67;;;4.30;99.90;;;;;;5064729;28;20491;-63
2021/11/26 00:36:50;;;;;;;5.80;1.55;;;4.30;99.90;;;;;;5059479;28;20029;-63
2021/11/26 00:39:16;;;;;;;4.60;2.00;;;4.30;99.90;;;;;;5058585;28;20420;-63
2021/11/26 00:41:42;;;;;;;4.18;1.38;;;4.30;99.90;;;;;;5062968;28;20108;-63
2021/11/26 00:44:07;;;;;;;7.10;1.73;;;4.30;99.90;;;;;;5059781;28;20095;-63
2021/11/26 00:46:33;;;;;;;3.88;1.30;;;4.40;99.90;;;;;;5066999;28;20028;-63
2021/11/26 00:49:00;;;;;;;2.80;1.10;;;4.40;99.90;;;;;;5053629;28;20037;-63
2021/11/26 00:51:25;;;;;;;4.03;1.55;;;4.40;99.90;;;;;;5056363;28;20013;-63
2021/11/26 00:53:51;;;;;;;2.80;1.20;;;4.40;99.90;;;;;;5077812;28;20130;-63
2021/11/26 00:56:17;;;;;;;2.88;1.00;;;4.40;99.90;;;;;;5056508;28;20025;-63
2021/11/26 00:58:42;;;;;;;4.22;1.30;;;4.40;99.90;;;;;;5061699;28;20104;-63
2021/11/26 01:01:08;;;;;;;3.17;1.20;;;4.50;99.90;;;;;;5069353;28;20497;-63
2021/11/26 01:03:34;;;;;;;3.50;1.20;;;4.50;99.90;;;;;;5067452;28;20074;-63
2021/11/26 01:05:59;;;;;;;4.35;1.40;;;4.50;99.90;;;;;;5059662;28;20021;-63
2021/11/26 01:08:25;;;;;;;3.40;0.80;;;4.50;99.90;;;;;;5057862;28;20389;-63
2021/11/26 01:10:52;;;;;;;2.47;0.80;;;4.50;99.90;;;;;;5053397;28;20013;-63
2021/11/26 01:13:17;;;;;;;2.15;0.70;;;4.50;99.90;;;;;;5055871;28;20430;-63
2021/11/26 01:15:43;;;;;;;2.42;0.88;;;4.50;99.90;;;;;;5072813;28;20035;-63
2021/11/26 01:18:11;;;;;;;2.67;1.05;;;4.50;99.90;;;;;;5059394;28;20480;-63
2021/11/26 01:20:38;;;;;;;5.30;0.85;;;4.60;99.90;;;;;;5062869;28;20086;-63
2021/11/26 01:23:05;;;;;;;2.95;0.77;;;4.60;99.90;;;;;;5061150;28;20033;-62
2021/11/26 01:25:31;;;;;;;5.45;0.93;;;4.60;99.90;;;;;;5053128;28;20499;-63
2021/11/26 01:27:57;;;;;;;5.70;1.13;;;4.60;99.90;;;;;;5057567;28;20485;-63
2021/11/26 01:32:59;;;;;;;4.93;0.80;;;4.70;99.90;;;;;;5056117;28;20401;-63
2021/11/26 01:35:25;;;;;;;2.67;0.80;;;4.70;99.90;;;;;;5063614;28;20023;-63
2021/11/26 01:37:52;;;;;;;7.10;1.30;;;4.70;99.90;;;;;;5055591;28;20029;-63
2021/11/26 01:40:19;;;;;;;5.20;1.10;;;4.70;99.90;;;;;;5060444;28;20021;-62
2021/11/26 01:42:46;;;;;;;3.83;1.20;;;4.80;99.90;;;;;;5066937;28;20093;-63
2021/11/26 01:45:13;;;;;;;4.95;1.30;;;4.80;99.90;;;;;;5057772;28;20033;-63
2021/11/26 01:47:38;;;;;;;2.50;0.80;;;4.80;99.90;;;;;;5058188;28;20040;-63
2021/11/26 01:50:05;;;;;;;2.65;1.00;;;4.80;99.90;;;;;;5068208;28;20040;-63
2021/11/26 01:52:31;;;;;;;1.77;0.90;;;4.80;99.90;;;;;;5060664;28;20024;-63
2021/11/26 01:54:57;;;;;;;2.05;0.88;;;4.90;99.90;;;;;;5057180;28;20025;-63
2021/11/26 01:57:23;;;;;;;3.55;1.33;;;4.90;99.90;;;;;;5058754;28;20476;-63
2021/11/26 01:59:51;;;;;;;5.70;1.67;;;4.90;99.90;;;;;;5057718;28;20481;-63
2021/11/26 02:02:18;;;;;;;6.40;2.60;;;4.90;99.90;;;;;;5058276;28;20028;-63
2021/11/26 02:04:43;;;;;;;2.63;1.23;;;4.80;99.90;;;;;;5068154;28;20025;-63
2021/11/26 02:07:10;;;;;;;4.50;1.90;;;4.80;99.90;;;;;;5061374;28;20032;-63
2021/11/26 02:09:35;;;;;;;2.38;1.40;;;4.80;99.90;;;;;;5061118;28;20535;-63
2021/11/26 02:12:01;;;;;;;7.95;2.67;;;4.80;99.90;;;;;;5067452;28;20119;-63
2021/11/26 02:14:27;;;;;;;4.03;1.48;;;4.70;99.90;;;;;;5060159;28;20100;-63
2021/11/26 02:16:52;;;;;;;3.72;1.88;;;4.80;99.90;;;;;;5059813;28;20020;-63
2021/11/26 02:19:22;;;;;;;4.60;2.47;;;4.80;99.90;;;;;;5062145;28;20476;-63
2021/11/26 02:21:48;;;;;;;;;;;4.90;99.90;;;;;;5070015;28;20039;-63
2021/11/26 02:24:13;;;;;;;5.03;1.90;;;4.80;99.90;;;;;;5066648;28;19905;-63
2021/11/26 02:26:42;;;;;;;6.85;2.05;;;4.80;99.90;;;;;;5053771;28;20028;-63
2021/11/26 02:29:09;;;;;;;4.43;2.00;;;4.90;99.90;;;;;;5056387;28;20028;-63
2021/11/26 02:31:35;;;;;;;3.97;1.90;;;4.90;99.90;;;;;;5053842;28;20024;-63
2021/11/26 02:34:00;;;;;;;3.45;1.95;;;4.90;99.90;;;;;;5057473;28;20025;-63
2021/11/26 02:36:26;;;;;;;4.88;1.63;;;5.00;99.90;;;;;;5052898;28;20465;-63
2021/11/26 02:38:53;;;;;;;2.30;1.63;;;5.00;99.90;;;;;;5058228;28;20028;-63
2021/11/26 02:41:18;;;;;;;4.07;1.40;;;5.00;99.90;;;;;;5061456;28;20104;-63
2021/11/26 02:43:44;;;;;;;3.22;1.50;;;5.00;99.90;;;;;;5050401;28;20585;-63
2021/11/26 02:46:10;;;;;;;2.35;1.23;;;5.00;99.90;;;;;;5066833;28;20021;-63
2021/11/26 02:48:36;;;;;;;2.65;1.10;;;5.00;99.90;;;;;;5055583;28;20040;-63
2021/11/26 02:51:01;;;;;;;2.70;1.15;;;5.00;99.90;;;;;;5060865;28;20032;-63
2021/11/26 02:53:27;;;;;;;2.20;1.00;;;5.00;99.90;;;;;;5056726;28;20017;-63
2021/11/26 02:55:52;;;;;;;4.75;1.50;;;5.00;99.90;;;;;;5058192;28;20358;-63
2021/11/26 02:58:18;;;;;;;4.13;1.02;;;5.00;99.90;;;;;;5060423;28;20021;-63
2021/11/26 03:00:47;;;;;;;4.03;1.27;;;5.00;99.90;;;;;;5057736;28;20126;-63
2021/11/26 03:03:13;;;;;;;2.53;0.93;;;5.00;99.90;;;;;;5055339;28;20112;-63
2021/11/26 03:05:38;;;;;;;1.90;1.00;;;5.00;99.90;;;;;;5055588;28;20143;-63
2021/11/26 03:08:05;;;;;;;5.72;0.93;;;5.00;99.90;;;;;;5059900;28;20036;-63
2021/11/26 03:10:31;;;;;;;6.05;0.90;;;5.00;99.90;;;;;;5057397;28;20017;-63
2021/11/26 03:13:00;;;;;;;3.42;0.90;;;5.00;99.90;;;;;;5061443;28;20015;-63
2021/11/26 03:15:27;;;;;;;1.42;0.70;;;5.00;99.90;;;;;;5056804;28;20017;-63
2021/11/26 03:17:55;;;;;;;2.42;1.30;;;5.00;99.90;;;;;;5059093;28;20032;-63
2021/11/26 03:20:22;;;;;;;1.95;0.70;;;5.00;99.90;;;;;;5056839;28;20515;-63
2021/11/26 03:22:48;;;;;;;2.70;0.90;;;5.00;99.90;;;;;;5066209;28;20083;-63
2021/11/26 03:25:15;;;;;;;3.25;0.85;;;5.10;99.90;;;;;;5060585;28;20029;-63
2021/11/26 03:27:42;;;;;;;4.10;1.10;;;5.10;99.90;;;;;;5056689;28;20109;-63
2021/11/26 03:30:10;;;;;;;1.63;0.57;;;5.10;99.90;;;;;;5059275;28;20046;-63
2021/11/26 03:32:35;;;;;;;1.45;0.50;;;5.10;99.90;;;;;;5064883;28;20104;-63
2021/11/26 03:35:01;;;;;;;3.97;1.05;;;5.10;99.90;;;;;;5056821;28;20095;-63
2021/11/26 03:37:27;;;;;;;3.35;0.57;;;5.20;99.90;;;;;;5072620;28;20531;-63
2021/11/26 03:39:52;;;;;;;4.07;0.77;;;5.20;99.90;;;;;;5074736;28;20488;-63
2021/11/26 03:42:18;;;;;;;1.60;0.90;;;5.20;99.90;;;;;;5066229;28;20150;-63
2021/11/26 03:44:43;;;;;;;5.43;0.60;;;5.20;99.90;;;;;;5060596;28;20029;-63
2021/11/26 03:47:09;;;;;;;2.15;0.73;;;5.20;99.90;;;;;;5060324;28;20119;-63
2021/11/26 03:49:35;;;;;;;1.92;0.60;;;5.20;99.90;;;;;;5057518;28;20017;-63
2021/11/26 03:52:00;;;;;;;1.33;0.70;;;5.20;99.90;;;;;;5056301;28;20487;-63
2021/11/26 03:54:26;;;;;;;1.80;0.70;;;5.30;99.90;;;;;;5057389;28;20024;-63
2021/11/26 03:56:52;;;;;;;3.65;0.80;;;5.20;99.90;;;;;;5057804;28;20013;-63
2021/11/26 03:59:17;;;;;;;4.35;0.85;;;5.20;99.90;;;;;;5065635;28;20396;-63
2021/11/26 04:01:43;;;;;;;2.38;0.80;;;5.20;99.90;;;;;;5060255;28;20093;-63
2021/11/26 04:04:08;;;;;;;3.20;1.02;;;5.20;99.90;;;;;;5060014;28;20036;-63
2021/11/26 04:06:34;;;;;;;2.33;0.85;;;5.20;99.90;;;;;;5057214;28;20017;-63
2021/11/26 04:08:59;;;;;;;3.40;0.70;;;5.20;99.90;;;;;;5056394;28;20032;-63
2021/11/26 04:11:26;;;;;;;2.67;0.57;;;5.20;99.90;;;;;;5060744;28;20039;-63
2021/11/26 04:13:52;;;;;;;1.45;0.50;;;5.20;99.90;;;;;;5059998;28;20020;-63
2021/11/26 04:16:17;;;;;;;3.67;0.47;;;5.30;99.90;;;;;;5062911;28;20025;-63
2021/11/26 04:18:44;;;;;;;3.45;0.70;;;5.30;99.90;;;;;;5059567;28;20399;-63
2021/11/26 04:21:11;;;;;;;2.10;0.30;;;5.30;99.90;;;;;;5062473;28;20047;-63
2021/11/26 04:23:36;;;;;;;2.45;0.40;;;5.30;99.90;;;;;;5062259;28;20023;-63
2021/11/26 04:26:02;;;;;;;2.30;0.50;;;5.30;99.90;;;;;;5059845;28;20443;-63
2021/11/26 04:28:28;;;;;;;1.42;0.30;;;5.40;99.90;;;;;;5056583;28;20016;-63
2021/11/26 04:30:54;;;;;;;2.88;0.63;;;5.30;99.90;;;;;;5065296;28;20353;-63
2021/11/26 04:33:20;;;;;;;4.28;0.40;;;5.30;99.90;;;;;;5056734;28;20029;-63
2021/11/26 04:35:49;;;;;;;2.67;0.65;;;5.30;99.90;;;;;;5062312;28;20067;-63
2021/11/26 04:38:15;;;;;;;3.03;0.52;;;5.40;99.90;;;;;;5056799;28;20590;-63
2021/11/26 04:40:41;;;;;;;1.42;0.38;;;5.30;99.90;;;;;;5060901;28;20040;-63
2021/11/26 04:43:07;;;;;;;1.30;0.38;;;5.30;99.90;;;;;;5057049;28;20428;-63
2021/11/26 04:45:32;;;;;;;2.28;0.30;;;5.30;99.90;;;;;;5062846;28;20484;-63
2021/11/26 04:47:58;;;;;;;1.80;0.43;;;5.30;99.90;;;;;;5060818;28;20051;-63
2021/11/26 04:50:23;;;;;;;3.05;0.40;;;5.30;99.90;;;;;;5057884;28;20508;-63
2021/11/26 04:52:49;;;;;;;1.23;0.30;;;5.20;99.90;;;;;;5068116;28;20028;-63
2021/11/26 04:55:16;;;;;;;2.33;0.30;;;5.30;99.90;;;;;;5070067;28;20048;-63
2021/11/26 04:57:42;;;;;;;2.05;0.40;;;5.30;99.90;;;;;;5057669;28;20495;-63
2021/11/26 05:00:09;;;;;;;2.28;0.40;;;5.30;99.90;;;;;;5067347;28;20024;-63
2021/11/26 05:02:35;;;;;;;4.88;0.73;;;5.30;99.90;;;;;;5066020;28;20021;-63
2021/11/26 05:05:01;;;;;;;1.30;0.40;;;5.30;99.90;;;;;;5056389;28;20021;-63
2021/11/26 05:07:29;;;;;;;2.28;0.40;;;5.20;99.90;;;;;;5061561;28;20025;-63
2021/11/26 05:09:59;;;;;;;2.33;0.63;;;5.20;99.90;;;;;;5055911;28;20024;-63
2021/11/26 05:12:29;;;;;;;3.03;0.50;;;5.20;99.90;;;;;;5064029;28;20028;-63
2021/11/26 05:14:54;;;;;;;3.05;0.63;;;5.10;99.90;;;;;;5056261;28;20127;-63
2021/11/26 05:17:20;;;;;;;6.13;0.50;;;5.10;99.90;;;;;;5062951;28;20096;-63
2021/11/26 05:19:45;;;;;;;4.38;0.50;;;5.00;99.90;;;;;;5053208;28;20474;-63
2021/11/26 05:22:11;;;;;;;2.75;0.68;;;5.10;99.90;;;;;;5060858;28;20025;-63
2021/11/26 05:24:36;;;;;;;2.47;0.60;;;5.00;99.90;;;;;;5060344;28;20419;-63
2021/11/26 05:27:02;;;;;;;2.92;0.70;;;5.00;99.90;;;;;;5060867;28;20043;-63
2021/11/26 05:29:27;;;;;;;1.10;0.60;;;5.00;99.90;;;;;;5061521;28;20021;-63
2021/11/26 05:31:53;;;;;;;3.22;0.98;;;5.00;99.90;;;;;;5067532;28;20028;-63
2021/11/26 05:34:18;;;;;;;5.25;1.20;;;4.90;99.90;;;;;;5057534;28;20021;-63
2021/11/26 05:36:44;;;;;;;5.80;1.48;;;5.00;99.90;;;;;;5053347;28;20096;-63
2021/11/26 05:39:09;;;;;;;6.10;1.45;;;4.90;99.90;;;;;;5063823;28;20021;-63
2021/11/26 05:41:35;;;;;;;3.92;1.30;;;4.90;99.90;;;;;;5061078;28;20057;-63
2021/11/26 05:44:11;;;;;;;3.40;1.80;;;4.90;99.90;;;;;;5060285;28;20033;-63
2021/11/26 05:46:36;;;;;;;5.05;1.48;;;4.90;99.90;;;;;;5057457;28;20104;-63
2021/11/26 05:49:02;;;;;;;9.65;2.05;;;4.90;99.90;;;;;;5060549;28;20123;-63
2021/11/26 05:51:31;;;;;;;6.47;2.28;;;4.90;99.90;;;;;;5060713;28;20021;-63
2021/11/26 05:53:57;;;;;;;6.60;2.05;;;4.90;99.90;;;;;;5063622;28;20402;-63
2021/11/26 05:56:22;;;;;;;7.00;1.65;;;4.90;99.90;;;;;;5063038;28;20017;-63
2021/11/26 05:58:48;;;;;;;5.97;1.80;;;4.90;99.90;;;;;;5063732;28;20056;-63
2021/11/26 06:01:29;;;;;;;6.88;1.80;;;4.90;99.90;;;;;;5062896;28;20032;-63
2021/11/26 06:03:55;;;;;;;8.20;1.88;;;4.90;99.90;;;;;;5053800;28;20021;-63
2021/11/26 06:06:20;;;;;;;7.90;1.83;;;4.90;99.90;;;;;;5066859;28;20047;-63
2021/11/26 06:08:46;;;;;;;5.35;1.60;;;4.90;99.90;;;;;;5055647;28;20540;-63
2021/11/26 06:11:11;;;;;;;6.80;1.77;;;4.90;99.90;;;;;;5054925;28;20025;-63
2021/11/26 06:13:37;;;;;;;3.92;1.52;;;4.90;99.90;;;;;;5075829;28;20028;-63
2021/11/26 06:16:03;;;;;;;6.45;2.10;;;4.90;99.90;;;;;;5052162;28;20032;-63
2021/11/26 06:18:28;;;;;;;3.67;1.50;;;4.90;99.90;;;;;;5067418;28;20071;-63
2021/11/26 06:20:54;;;;;;;11.95;2.97;;;4.90;99.90;;;;;;5054705;28;20103;-63
2021/11/26 06:23:19;;;;;;;9.07;2.78;;;4.90;99.90;;;;;;5057501;28;20090;-63
2021/11/26 06:25:59;;;;;;;6.72;2.45;;;4.80;99.90;;;;;;5062511;28;20023;-63
2021/11/26 06:28:24;;;;;;;6.07;2.42;;;4.80;99.90;;;;;;5061574;28;20044;-63
2021/11/26 06:30:50;;;;;;;5.93;2.70;;;4.80;99.90;;;;;;5072523;28;20469;-62
2021/11/26 06:33:15;;;;;;;10.90;4.25;;;4.80;99.90;;;;;;5073122;28;20024;-62
2021/11/26 06:35:41;;;;;;;9.02;2.72;;;4.80;99.90;;;;;;5071562;28;20021;-62
2021/11/26 06:38:06;;;;;;;10.15;3.90;;;4.80;99.90;;;;;;5073164;28;20081;-62
2021/11/26 06:40:32;;;;;;;11.35;3.55;;;4.80;99.90;;;;;;5072566;28;20052;-62
2021/11/26 06:43:18;;;;;;;12.10;3.97;;;4.80;99.90;;;;;;5066746;28;20098;-62
2021/11/26 06:52:30;;;;;;;7.15;3.38;;;4.80;99.90;;;;;;5056671;28;20419;-62
2021/11/26 06:54:55;;;;;;;10.00;4.55;;;4.80;99.90;;;;;;5072918;28;20097;-62
2021/11/26 06:57:37;;;;;;;15.07;4.50;;;4.80;99.90;;;;;;5072552;28;20028;-63
2021/11/26 07:00:27;;;;;;;13.82;5.15;;;4.80;99.90;;;;;;5071359;28;20500;-62
2021/11/26 07:02:52;;;;;;;15.00;5.82;;;4.80;99.90;;;;;;5073255;28;20104;-62
2021/11/26 07:05:29;;;;;;;10.57;6.00;;;4.80;99.90;;;;;;5072755;28;20440;-62
2021/11/26 07:07:55;;;;;;;12.45;6.18;;;4.80;99.90;;;;;;5072925;28;20027;-63
2021/11/26 07:10:21;;;;;;;15.15;6.75;;;4.70;99.90;;;;;;5072495;28;20024;-63
2021/11/26 07:12:46;;;;;;;14.98;7.35;;;4.70;99.90;;;;;;5072079;28;20035;-62
2021/11/26 07:15:13;;;;;;;14.82;6.55;;;4.70;99.90;;;;;;5072658;28;20389;-62
2021/11/26 07:17:39;;;;;;;16.90;6.93;;;4.70;99.90;;;;;;5072595;28;20535;-62
2021/11/26 07:20:06;;;;;;;15.05;6.40;;;4.70;99.90;;;;;;5072469;28;20029;-62
2021/11/26 07:22:32;;;;;;;18.05;6.80;;;4.70;99.90;;;;;;5071329;28;20107;-62
2021/11/26 07:25:17;;;;;;;16.90;6.75;;;4.70;99.90;;;;;;5072553;28;20116;-63
2021/11/26 07:27:43;;;;;;;14.50;6.88;;;4.80;99.90;;;;;;5071485;28;20107;-62
2021/11/26 07:30:21;;;;;;;14.27;6.75;;;4.70;99.90;;;;;;5070511;28;20099;-63
2021/11/26 07:32:48;;;;;;;15.07;6.18;;;4.80;99.90;;;;;;5072131;28;20033;-62
2021/11/26 07:35:14;;;;;;;14.63;5.65;;;4.70;99.90;;;;;;5072458;28;20472;-62
2021/11/26 07:37:41;;;;;;;15.27;6.72;;;4.80;99.90;;;;;;5072409;28;20384;-62
2021/11/26 07:40:32;;;;;;;19.58;6.13;;;4.80;99.90;;;;;;5072297;28;20071;-62
2021/11/26 07:42:57;;;;;;;21.85;7.38;;;4.80;99.90;;;;;;5072139;28;20024;-63
2021/11/26 07:45:33;;;;;;;14.18;5.57;;;4.80;99.90;;;;;;5068833;28;20032;-63
2021/11/26 07:51:05;;;;;;;10.57;5.07;;;4.80;99.90;;;;;;5067548;28;20055;-63
2021/11/26 07:53:32;;;;;;;18.38;5.95;;;4.80;99.90;;;;;;5070490;28;20460;-63
2021/11/26 07:55:58;;;;;;;15.15;5.50;;;4.80;99.90;;;;;;5067971;28;20096;-63
2021/11/26 07:58:24;;;;;;;12.77;5.28;;;4.80;99.90;;;;;;5061814;28;20025;-63
2021/11/26 08:01:12;;;;;;;15.80;6.07;;;4.80;99.90;;;;;;5067649;28;20051;-63
2021/11/26 08:03:37;;;;;;;21.08;5.95;;;4.80;99.90;;;;;;5067463;28;20025;-63
2021/11/26 08:06:06;;;;;;;14.35;5.82;;;4.70;99.90;;;;;;5070147;28;20021;-63
2021/11/26 08:08:32;;;;;;;13.80;5.30;;;4.80;99.90;;;;;;5072035;28;20043;-63
2021/11/26 08:10:58;;;;;;;23.88;6.40;;;4.80;99.90;;;;;;5072113;28;20468;-63
2021/11/26 08:13:23;;;;;;;21.73;5.50;;;4.70;99.90;;;;;;5071918;28;20031;-63
2021/11/26 08:16:25;;;;;;;16.40;5.95;;;4.80;99.90;;;;;;5072046;28;20033;-63
2021/11/26 08:21:56;;;;;;;22.42;5.45;;;4.80;99.90;;;;;;5068628;28;20389;-63
2021/11/26 08:24:22;;;;;;;21.88;5.57;;;4.80;99.90;;;;;;5072959;28;20025;-63
2021/11/26 08:27:36;;;;;;;;;;;;;;;;;;;;;
2021/11/26 08:30:42;;;;;;;19.33;5.28;;;4.80;99.90;;;;;;5075412;28;20031;-63
2021/11/26 08:33:09;;;;;;;16.38;5.53;;;4.80;99.90;;;;;;5071781;28;20028;-63
2021/11/26 08:35:36;;;;;;;19.75;5.20;;;4.70;99.90;;;;;;5073668;28;20153;-63
2021/11/26 08:38:02;;;;;;;19.13;5.22;;;4.70;99.90;;;;;;5071895;28;20036;-63
2021/11/26 08:40:28;;;;;;;20.92;5.90;;;4.80;99.90;;;;;;5074142;28;20388;-64
2021/11/26 08:42:54;;;;;;;20.50;6.80;;;4.80;99.90;;;;;;5068214;28;20020;-63
2021/11/26 08:46:09;;;;;;;;;;;;;;;;;;;;;
2021/11/26 08:49:13;;;;;;;20.85;6.10;;;4.80;99.90;;;;;;5072090;28;20123;-63
2021/11/26 08:55:16;;;;;;;21.30;6.15;;;4.70;99.90;;;;;;4976530;28;20046;-64
2021/11/26 08:58:29;;;;;;;20.40;6.70;;;4.70;99.90;;;;;;4992035;28;20072;-63
2021/11/26 09:00:55;;;;;;;16.38;5.85;;;4.70;99.90;;;;;;5074475;28;20044;-63
2021/11/26 09:03:21;;;;;;;17.38;5.90;;;4.70;99.90;;;;;;5074726;28;20052;-63
2021/11/26 09:05:46;;;;;;;19.13;5.85;;;4.70;99.90;;;;;;5074927;28;20365;-63
2021/11/26 09:08:15;;;;;;;20.58;6.63;;;4.70;99.90;;;;;;5073571;28;20032;-63
2021/11/26 09:10:46;;;;;;;19.00;6.35;;;4.80;99.90;;;;;;5073833;28;20067;-63
2021/11/26 09:13:13;;;;;;;19.25;5.20;;;4.80;99.90;;;;;;5074902;28;20230;-63
2021/11/26 09:15:40;;;;;;;15.43;5.22;;;4.80;99.90;;;;;;5074527;28;20024;-62
2021/11/26 09:18:16;;;;;;;15.93;4.63;;;4.80;99.90;;;;;;5074007;28;20020;-63
2021/11/26 09:20:53;;;;;;;17.75;6.30;;;4.90;99.90;;;;;;5073872;28;20033;-63
2021/11/26 09:23:19;;;;;;;22.05;5.82;;;4.90;99.90;;;;;;5073392;28;20074;-63
2021/11/26 09:26:22;;;;;;;15.00;4.30;;;4.90;99.90;;;;;;5062817;28;20075;-63
2021/11/26 09:28:48;;;;;;;14.57;4.07;;;4.90;99.90;;;;;;5068054;28;20086;-63
2021/11/26 09:31:45;;;;;;;12.27;4.68;;;4.90;99.90;;;;;;5066486;28;20025;-63
2021/11/26 09:35:19;;;;;;;13.82;4.05;;;4.90;99.90;;;;;;5065456;28;20104;-63
2021/11/26 09:37:37;;;;;;;16.55;4.43;;;4.90;99.90;;;;;;5058449;28;20035;-63
2021/11/26 09:43:27;;;;;;;15.98;3.78;;;4.90;99.60;;;;;;5059518;28;20032;-63
2021/11/26 09:45:53;;;;;;;15.70;4.22;;;4.90;99.50;;;;;;5063578;28;20024;-63
2021/11/26 09:48:19;;;;;;;12.02;3.65;;;5.00;99.60;;;;;;5069143;28;20384;-63
2021/11/26 09:50:45;;;;;;;12.05;3.45;;;5.20;99.60;;;;;;5068385;28;20036;-63
2021/11/26 09:53:15;;;;;;;15.20;4.15;;;5.40;99.20;;;;;;5070664;28;20063;-63
2021/11/26 09:55:49;;;;;;;14.38;3.70;;;5.50;98.70;;;;;;5069119;28;20372;-63
2021/11/26 09:58:16;;;;;;;14.25;3.83;;;5.60;98.50;;;;;;5068655;28;20117;-63
2021/11/26 10:00:43;;;;;;;11.98;3.38;;;5.70;98.20;;;;;;5069711;28;20025;-63
2021/11/26 10:03:09;;;;;;;8.23;3.78;;;5.80;97.60;;;;;;5069256;28;20020;-63
2021/11/26 10:05:36;;;;;;;8.38;2.83;;;6.10;97.20;;;;;;5068940;28;20519;-63
2021/11/26 10:08:03;;;;;;;12.20;3.80;;;6.20;96.70;;;;;;5071336;28;20024;-63
2021/11/26 10:10:37;;;;;;;11.38;4.00;;;6.30;96.30;;;;;;5068513;28;20393;-63
2021/11/26 10:13:09;;;;;;;12.43;3.47;;;6.30;95.80;;;;;;5068634;28;20035;-63
2021/11/26 10:15:46;;;;;;;15.65;3.00;;;6.50;95.80;;;;;;5070389;28;20033;-63
2021/11/26 10:18:22;;;;;;;11.60;3.40;;;6.60;95.70;;;;;;5068793;28;20017;-63
2021/11/26 10:21:06;;;;;;;10.63;3.95;;;6.80;95.40;;;;;;5065137;28;20056;-63
2021/11/26 10:23:41;;;;;;;16.00;3.70;;;7.10;94.70;;;;;;5070277;28;20016;-63
2021/11/26 10:26:23;;;;;;;11.60;3.33;;;7.20;94.30;;;;;;5073426;28;20029;-63
2021/11/26 10:28:54;;;;;;;10.93;3.03;;;7.20;93.60;;;;;;5071320;28;20020;-63
2021/11/26 10:31:33;;;;;;;10.63;3.25;;;7.00;93.70;;;;;;5071528;28;20027;-63
2021/11/26 10:34:02;;;;;;;13.32;3.45;;;6.80;93.90;;;;;;5068043;28;20036;-63
2021/11/26 10:36:40;;;;;;;12.45;3.30;;;6.70;94.30;;;;;;5070774;28;20053;-63
2021/11/26 10:39:18;;;;;;;12.02;3.35;;;6.50;94.80;;;;;;5070927;28;20040;-63
2021/11/26 10:41:51;;;;;;;9.15;2.92;;;6.40;94.90;;;;;;5072502;28;20029;-63
2021/11/26 11:01:22;;;;;;;13.85;3.95;;;5.90;95.30;;;;;;5072381;28;20078;-63
2021/11/26 11:03:49;;;;;;;10.15;3.03;;;5.90;95.30;;;;;;5068292;28;20035;-63
2021/11/26 11:06:20;;;;;;;10.98;3.25;;;5.90;95.50;;;;;;5070627;28;20024;-63
2021/11/26 11:09:02;;;;;;;13.40;3.75;;;5.90;95.50;;;;;;5064945;28;20027;-63
2021/11/26 11:11:28;;;;;;;11.10;4.03;;;6.00;95.60;;;;;;5070401;28;20017;-63
2021/11/26 11:13:54;;;;;;;13.25;3.67;;;6.20;95.40;;;;;;5062168;28;20033;-63
2021/11/26 11:16:20;;;;;;;9.57;2.97;;;6.60;95.00;;;;;;5059353;28;20063;-63
2021/11/26 11:18:47;;;;;;;10.15;3.45;;;7.30;94.30;;;;;;5070913;28;20167;-63
2021/11/26 11:21:25;;;;;;;12.52;3.55;;;7.70;92.30;;;;;;5072181;28;20440;-63
2021/11/26 11:23:51;;;;;;;12.57;3.13;;;7.40;92.00;;;;;;5069779;28;20085;-63
2021/11/26 11:27:04;;;;;;;;;;;;;;;;;;;;;
2021/11/26 11:30:09;;;;;;;10.45;3.20;;;7.10;93.10;;;;;;5051731;28;20024;-63
2021/11/26 11:32:36;;;;;;;9.73;3.45;;;7.10;93.30;;;;;;5051074;28;20037;-63
2021/11/26 11:35:06;;;;;;;13.77;3.45;;;7.00;92.90;;;;;;5052273;28;20469;-63
2021/11/26 11:37:32;;;;;;;8.40;2.72;;;6.90;93.10;;;;;;5051556;28;20088;-63
2021/11/26 11:40:02;;;;;;;10.40;2.60;;;6.80;93.10;;;;;;5051415;28;20107;-63
2021/11/26 11:42:59;;;;;;;8.95;3.65;;;6.60;93.40;;;;;;5050864;28;20017;-63
2021/11/26 11:45:54;;;;;;;11.48;2.95;;;6.50;93.50;;;;;;5050361;28;20033;-63
2021/11/26 11:48:29;;;;;;;12.30;3.78;;;6.40;93.80;;;;;;5051942;28;20025;-63
2021/11/26 11:50:56;;;;;;;9.10;2.78;;;6.40;94.30;;;;;;5069890;28;20480;-63
2021/11/26 11:53:32;;;;;;;11.88;3.05;;;6.30;94.50;;;;;;5060953;28;20021;-63
2021/11/26 11:56:10;;;;;;;16.83;4.15;;;6.20;94.70;;;;;;5068824;28;20039;-63
2021/11/26 11:58:48;;;;;;;11.63;3.20;;;6.10;94.90;;;;;;5072378;28;20024;-63
2021/11/26 12:01:38;;;;;;;9.55;2.55;;;6.00;95.30;;;;;;5070995;28;20079;-63
2021/11/26 12:04:15;;;;;;;11.02;2.78;;;5.90;95.80;;;;;;5073969;28;20035;-63
2021/11/26 12:06:42;;;;;;;8.30;2.67;;;5.70;96.40;;;;;;5092435;28;20028;-63
2021/11/26 12:09:21;;;;;;;8.88;3.03;;;5.60;96.90;;;;;;5080842;28;20028;-63
2021/11/26 12:11:47;;;;;;;10.38;2.80;;;5.50;97.30;;;;;;5083351;28;20017;-63
2021/11/26 12:14:13;;;;;;;10.60;2.70;;;5.40;97.70;;;;;;5090775;28;20017;-63
2021/11/26 12:19:38;;;;;;;11.35;3.08;;;5.20;98.60;;;;;;5085875;28;20035;-63
2021/11/26 12:22:04;;;;;;;14.43;3.00;;;5.10;99.30;;;;;;5080698;28;20029;-63
2021/11/26 12:24:41;;;;;;;15.05;4.68;;;5.00;99.70;;;;;;5091105;28;20032;-63
2021/11/26 12:27:07;;;;;;;9.77;3.50;;;5.00;99.90;;;;;;5081685;28;20123;-63
2021/11/26 12:29:41;;;;;;;12.93;4.00;;;4.90;99.90;;;;;;5082948;28;20041;-63
2021/11/26 12:32:12;;;;;;;10.90;3.90;;;4.90;99.90;;;;;;5087290;28;20483;-63
2021/11/26 12:34:52;;;;;;;8.07;3.08;;;4.80;99.90;;;;;;5090883;28;20028;-63
2021/11/26 12:37:25;;;;;;;8.27;3.40;;;4.80;99.90;;;;;;5082749;28;20445;-63
2021/11/26 12:39:53;;;;;;;10.30;3.63;;;4.70;99.90;;;;;;5081781;28;20477;-63
2021/11/26 12:42:20;;;;;;;10.20;4.40;;;4.60;99.90;;;;;;5090064;28;20066;-63
2021/11/26 12:45:00;;;;;;;12.60;4.40;;;4.60;99.90;;;;;;5066980;28;20045;-63
2021/11/26 12:47:55;;;;;;;13.68;4.38;;;4.60;99.90;;;;;;5071384;28;20544;-63
2021/11/26 12:53:09;;;;;;;10.60;3.85;;;4.50;99.90;;;;;;5069753;28;20036;-63
2021/11/26 12:55:37;;;;;;;9.63;4.13;;;4.40;99.90;;;;;;5073862;28;20020;-63
2021/11/26 12:58:04;;;;;;;8.40;4.30;;;4.40;99.90;;;;;;5075389;28;20021;-63
2021/11/26 13:00:32;;;;;;;11.80;4.10;;;4.40;99.90;;;;;;5089556;28;20020;-63
2021/11/26 13:03:09;;;;;;;10.27;4.55;;;4.40;99.90;;;;;;5078592;28;20051;-63
2021/11/26 13:05:35;;;;;;;8.40;4.38;;;4.30;99.90;;;;;;5083730;28;20468;-63
2021/11/26 13:08:00;;;;;;;9.80;4.10;;;4.30;99.90;;;;;;5071600;28;20032;-64
2021/11/26 13:10:26;;;;;;;9.52;4.05;;;4.30;99.90;;;;;;5087109;28;20035;-64
2021/11/26 13:12:58;;;;;;;7.78;3.65;;;4.30;99.90;;;;;;5078281;28;20059;-64
2021/11/26 13:15:25;;;;;;;9.25;4.55;;;4.20;99.90;;;;;;5085550;28;20036;-64
2021/11/26 13:17:53;;;;;;;10.88;3.95;;;4.20;99.90;;;;;;5072449;28;20472;-64
2021/11/26 13:20:29;;;;;;;10.43;4.13;;;4.20;99.90;;;;;;5064574;28;20029;-64
2021/11/26 13:23:01;;;;;;;9.38;3.90;;;4.20;99.90;;;;;;5065477;28;20056;-64
2021/11/26 13:25:36;;;;;;;7.25;3.53;;;4.10;99.90;;;;;;5073851;28;20503;-64
2021/11/26 13:28:07;;;;;;;8.85;4.22;;;4.10;99.90;;;;;;5073018;28;20278;-64
2021/11/26 13:30:41;;;;;;;8.48;3.85;;;4.10;99.90;;;;;;5073412;28;20054;-64
2021/11/26 13:33:10;;;;;;;7.70;3.08;;;4.10;99.90;;;;;;5074179;28;20471;-64
2021/11/26 13:35:38;;;;;;;11.13;4.55;;;4.10;99.90;;;;;;5073945;28;20066;-64
2021/11/26 13:45:40;;;;;;;9.98;4.60;;;4.00;99.90;;;;;;4937854;28;20049;-64
2021/11/26 13:48:55;;;;;;;11.38;4.78;;;4.00;99.90;;;;;;4964151;28;20066;-64
2021/11/26 13:58:33;;;;;;;16.15;4.95;;;4.00;99.90;;;;;;4932325;28;20046;-64
2021/11/26 14:00:59;;;;;;;9.07;4.57;;;4.00;99.90;;;;;;5011618;28;20049;-65
2021/11/26 14:03:42;;;;;;;15.45;5.97;;;4.00;99.90;;;;;;5063629;28;20476;-65
2021/11/26 14:06:17;;;;;;;10.23;5.35;;;4.10;99.90;;;;;;5073389;28;20496;-65
2021/11/26 14:09:16;;;;;;;;;;;;;;;;;;;;;
2021/11/26 14:11:51;;;;;;;11.13;4.90;;;4.10;99.90;;;;;;5047731;28;20051;-65
2021/11/26 14:14:21;;;;;;;12.73;5.05;;;4.00;99.90;;;;;;5073288;28;20032;-65